sensor_id;sensor_type;location;lat;lon;timestamp;temperature;humidity
76613;DHT22;65507;48.454;-2.058;2023-05-15T00:01:34;13.00;82.40
76613;DHT22;65507;48.454;-2.058;2023-05-15T00:04:00;13.00;82.40
76613;DHT22;65507;48.454;-2.058;2023-05-15T00:06:26;13.00;82.30
76613;DHT22;65507;48.454;-2.058;2023-05-15T00:08:52;13.00;82.30
76613;DHT22;65507;48.454;-2.058;2023-05-15T00:11:18;13.00;82.30
76613;DHT22;65507;48.454;-2.058;2023-05-15T00:13:43;13.00;82.40
76613;DHT22;65507;48.454;-2.058;2023-05-15T00:16:09;12.90;82.40
76613;DHT22;65507;48.454;-2.058;2023-05-15T00:18:35;12.90;82.40
76613;DHT22;65507;48.454;-2.058;2023-05-15T00:21:00;12.90;82.50
76613;DHT22;65507;48.454;-2.058;2023-05-15T00:23:26;12.90;82.60
76613;DHT22;65507;48.454;-2.058;2023-05-15T00:25:51;12.90;82.60
76613;DHT22;65507;48.454;-2.058;2023-05-15T00:28:17;12.80;82.60
76613;DHT22;65507;48.454;-2.058;2023-05-15T00:30:42;12.80;82.60
76613;DHT22;65507;48.454;-2.058;2023-05-15T00:33:08;12.80;82.60
76613;DHT22;65507;48.454;-2.058;2023-05-15T00:35:33;12.80;82.70
76613;DHT22;65507;48.454;-2.058;2023-05-15T00:37:59;12.80;82.70
76613;DHT22;65507;48.454;-2.058;2023-05-15T00:40:25;12.80;82.70
76613;DHT22;65507;48.454;-2.058;2023-05-15T00:42:51;12.80;82.70
76613;DHT22;65507;48.454;-2.058;2023-05-15T00:45:16;12.80;82.80
76613;DHT22;65507;48.454;-2.058;2023-05-15T00:47:42;12.80;82.80
76613;DHT22;65507;48.454;-2.058;2023-05-15T00:50:08;12.80;82.90
76613;DHT22;65507;48.454;-2.058;2023-05-15T00:52:35;12.70;82.80
76613;DHT22;65507;48.454;-2.058;2023-05-15T00:55:00;12.70;82.90
76613;DHT22;65507;48.454;-2.058;2023-05-15T00:57:26;12.70;82.80
76613;DHT22;65507;48.454;-2.058;2023-05-15T00:59:52;12.70;82.90
76613;DHT22;65507;48.454;-2.058;2023-05-15T01:02:18;12.70;82.80
76613;DHT22;65507;48.454;-2.058;2023-05-15T01:04:44;12.70;82.90
76613;DHT22;65507;48.454;-2.058;2023-05-15T01:07:10;12.70;82.90
76613;DHT22;65507;48.454;-2.058;2023-05-15T01:09:35;12.70;83.00
76613;DHT22;65507;48.454;-2.058;2023-05-15T01:12:01;12.70;82.90
76613;DHT22;65507;48.454;-2.058;2023-05-15T01:14:29;12.70;82.90
76613;DHT22;65507;48.454;-2.058;2023-05-15T01:16:54;12.70;82.90
76613;DHT22;65507;48.454;-2.058;2023-05-15T01:19:20;12.60;82.90
76613;DHT22;65507;48.454;-2.058;2023-05-15T01:21:50;12.70;82.90
76613;DHT22;65507;48.454;-2.058;2023-05-15T01:27:18;12.60;83.00
76613;DHT22;65507;48.454;-2.058;2023-05-15T01:32:18;12.60;82.90
76613;DHT22;65507;48.454;-2.058;2023-05-15T01:34:56;12.60;82.90
76613;DHT22;65507;48.454;-2.058;2023-05-15T01:37:25;12.70;83.00
76613;DHT22;65507;48.454;-2.058;2023-05-15T01:39:56;12.70;82.90
76613;DHT22;65507;48.454;-2.058;2023-05-15T01:42:22;12.70;83.00
76613;DHT22;65507;48.454;-2.058;2023-05-15T01:44:52;12.70;83.00
76613;DHT22;65507;48.454;-2.058;2023-05-15T01:47:20;12.70;83.00
76613;DHT22;65507;48.454;-2.058;2023-05-15T01:49:46;12.70;83.00
76613;DHT22;65507;48.454;-2.058;2023-05-15T01:52:13;12.70;83.00
76613;DHT22;65507;48.454;-2.058;2023-05-15T01:54:39;12.70;83.00
76613;DHT22;65507;48.454;-2.058;2023-05-15T01:57:05;13.40;83.50
76613;DHT22;65507;48.454;-2.058;2023-05-15T01:59:31;12.60;83.10
76613;DHT22;65507;48.454;-2.058;2023-05-15T02:01:57;12.60;83.10
76613;DHT22;65507;48.454;-2.058;2023-05-15T02:04:23;12.60;83.10
76613;DHT22;65507;48.454;-2.058;2023-05-15T02:06:49;12.60;83.10
76613;DHT22;65507;48.454;-2.058;2023-05-15T02:09:16;12.60;83.20
76613;DHT22;65507;48.454;-2.058;2023-05-15T02:11:42;12.60;83.10
76613;DHT22;65507;48.454;-2.058;2023-05-15T02:14:08;12.60;83.20
76613;DHT22;65507;48.454;-2.058;2023-05-15T02:16:35;12.60;83.20
76613;DHT22;65507;48.454;-2.058;2023-05-15T02:19:00;12.60;83.10
76613;DHT22;65507;48.454;-2.058;2023-05-15T02:21:26;12.60;83.00
76613;DHT22;65507;48.454;-2.058;2023-05-15T02:23:51;12.60;83.00
76613;DHT22;65507;48.454;-2.058;2023-05-15T02:26:24;12.60;83.00
76613;DHT22;65507;48.454;-2.058;2023-05-15T02:28:58;12.60;83.00
76613;DHT22;65507;48.454;-2.058;2023-05-15T02:31:39;12.70;83.00
76613;DHT22;65507;48.454;-2.058;2023-05-15T02:34:11;12.70;83.00
76613;DHT22;65507;48.454;-2.058;2023-05-15T02:36:39;12.70;83.00
76613;DHT22;65507;48.454;-2.058;2023-05-15T02:39:06;12.70;83.00
76613;DHT22;65507;48.454;-2.058;2023-05-15T02:41:32;12.70;82.90
76613;DHT22;65507;48.454;-2.058;2023-05-15T02:43:58;12.70;83.00
76613;DHT22;65507;48.454;-2.058;2023-05-15T02:46:24;12.70;83.10
76613;DHT22;65507;48.454;-2.058;2023-05-15T02:48:51;12.70;83.10
76613;DHT22;65507;48.454;-2.058;2023-05-15T02:51:17;12.70;83.10
76613;DHT22;65507;48.454;-2.058;2023-05-15T02:53:43;12.70;83.00
76613;DHT22;65507;48.454;-2.058;2023-05-15T02:56:09;12.70;83.00
76613;DHT22;65507;48.454;-2.058;2023-05-15T02:58:34;12.70;82.90
76613;DHT22;65507;48.454;-2.058;2023-05-15T03:01:00;12.70;82.80
76613;DHT22;65507;48.454;-2.058;2023-05-15T03:03:26;12.70;82.80
76613;DHT22;65507;48.454;-2.058;2023-05-15T03:05:51;12.70;82.80
76613;DHT22;65507;48.454;-2.058;2023-05-15T03:08:17;12.80;82.90
76613;DHT22;65507;48.454;-2.058;2023-05-15T03:10:43;12.80;82.90
76613;DHT22;65507;48.454;-2.058;2023-05-15T03:13:08;12.80;82.90
76613;DHT22;65507;48.454;-2.058;2023-05-15T03:15:34;12.80;82.90
76613;DHT22;65507;48.454;-2.058;2023-05-15T03:18:00;12.80;83.00
76613;DHT22;65507;48.454;-2.058;2023-05-15T03:20:25;12.80;82.90
76613;DHT22;65507;48.454;-2.058;2023-05-15T03:22:51;12.80;82.90
76613;DHT22;65507;48.454;-2.058;2023-05-15T03:25:16;12.90;82.90
76613;DHT22;65507;48.454;-2.058;2023-05-15T03:27:42;12.90;82.80
76613;DHT22;65507;48.454;-2.058;2023-05-15T03:30:08;12.90;82.80
76613;DHT22;65507;48.454;-2.058;2023-05-15T03:32:33;12.80;82.80
76613;DHT22;65507;48.454;-2.058;2023-05-15T03:34:59;12.90;82.90
76613;DHT22;65507;48.454;-2.058;2023-05-15T03:37:25;12.90;82.90
76613;DHT22;65507;48.454;-2.058;2023-05-15T03:39:50;12.90;83.00
76613;DHT22;65507;48.454;-2.058;2023-05-15T03:42:16;12.90;83.90
76613;DHT22;65507;48.454;-2.058;2023-05-15T03:44:48;12.90;83.00
76613;DHT22;65507;48.454;-2.058;2023-05-15T03:47:13;12.80;83.00
76613;DHT22;65507;48.454;-2.058;2023-05-15T03:49:39;12.80;83.00
76613;DHT22;65507;48.454;-2.058;2023-05-15T03:52:05;12.90;83.10
76613;DHT22;65507;48.454;-2.058;2023-05-15T03:54:31;12.80;83.00
76613;DHT22;65507;48.454;-2.058;2023-05-15T03:56:56;12.90;83.10
76613;DHT22;65507;48.454;-2.058;2023-05-15T03:59:22;12.90;83.00
76613;DHT22;65507;48.454;-2.058;2023-05-15T04:01:47;12.90;83.00
76613;DHT22;65507;48.454;-2.058;2023-05-15T04:04:13;12.90;83.00
76613;DHT22;65507;48.454;-2.058;2023-05-15T04:06:38;12.90;82.90
76613;DHT22;65507;48.454;-2.058;2023-05-15T04:09:06;12.90;82.80
76613;DHT22;65507;48.454;-2.058;2023-05-15T04:11:31;12.90;82.90
76613;DHT22;65507;48.454;-2.058;2023-05-15T04:13:59;12.90;82.80
76613;DHT22;65507;48.454;-2.058;2023-05-15T04:16:24;13.00;82.90
76613;DHT22;65507;48.454;-2.058;2023-05-15T04:18:50;13.00;83.00
76613;DHT22;65507;48.454;-2.058;2023-05-15T04:21:15;13.00;82.80
76613;DHT22;65507;48.454;-2.058;2023-05-15T04:23:41;13.00;82.70
76613;DHT22;65507;48.454;-2.058;2023-05-15T04:26:06;13.00;82.70
76613;DHT22;65507;48.454;-2.058;2023-05-15T04:28:32;13.00;82.80
76613;DHT22;65507;48.454;-2.058;2023-05-15T04:30:58;13.00;82.80
76613;DHT22;65507;48.454;-2.058;2023-05-15T04:33:24;13.00;82.80
76613;DHT22;65507;48.454;-2.058;2023-05-15T04:35:50;13.00;82.80
76613;DHT22;65507;48.454;-2.058;2023-05-15T04:38:16;13.00;82.80
76613;DHT22;65507;48.454;-2.058;2023-05-15T04:40:42;13.00;82.90
76613;DHT22;65507;48.454;-2.058;2023-05-15T04:43:07;13.00;82.80
76613;DHT22;65507;48.454;-2.058;2023-05-15T04:45:33;13.00;82.90
76613;DHT22;65507;48.454;-2.058;2023-05-15T04:47:58;13.00;83.10
76613;DHT22;65507;48.454;-2.058;2023-05-15T04:50:24;13.00;83.00
76613;DHT22;65507;48.454;-2.058;2023-05-15T04:52:50;13.00;83.00
76613;DHT22;65507;48.454;-2.058;2023-05-15T04:55:15;13.00;83.10
76613;DHT22;65507;48.454;-2.058;2023-05-15T04:57:41;13.00;83.10
76613;DHT22;65507;48.454;-2.058;2023-05-15T05:00:07;13.00;83.10
76613;DHT22;65507;48.454;-2.058;2023-05-15T05:02:37;13.00;83.00
76613;DHT22;65507;48.454;-2.058;2023-05-15T05:05:02;13.00;83.00
76613;DHT22;65507;48.454;-2.058;2023-05-15T05:07:28;13.00;82.90
76613;DHT22;65507;48.454;-2.058;2023-05-15T05:09:53;13.10;83.00
76613;DHT22;65507;48.454;-2.058;2023-05-15T05:12:19;13.10;83.00
76613;DHT22;65507;48.454;-2.058;2023-05-15T05:14:45;13.10;82.90
76613;DHT22;65507;48.454;-2.058;2023-05-15T05:17:10;13.10;82.90
76613;DHT22;65507;48.454;-2.058;2023-05-15T05:19:36;13.10;82.90
76613;DHT22;65507;48.454;-2.058;2023-05-15T05:22:05;13.10;82.90
76613;DHT22;65507;48.454;-2.058;2023-05-15T05:24:30;13.20;82.80
76613;DHT22;65507;48.454;-2.058;2023-05-15T05:26:56;13.20;82.80
76613;DHT22;65507;48.454;-2.058;2023-05-15T05:29:25;13.20;82.80
76613;DHT22;65507;48.454;-2.058;2023-05-15T05:31:52;13.20;82.80
76613;DHT22;65507;48.454;-2.058;2023-05-15T05:34:18;13.20;82.80
76613;DHT22;65507;48.454;-2.058;2023-05-15T05:36:44;13.20;83.00
76613;DHT22;65507;48.454;-2.058;2023-05-15T05:39:09;13.20;82.80
76613;DHT22;65507;48.454;-2.058;2023-05-15T05:41:35;13.30;82.90
76613;DHT22;65507;48.454;-2.058;2023-05-15T05:44:01;13.30;82.90
76613;DHT22;65507;48.454;-2.058;2023-05-15T05:46:26;13.30;82.90
76613;DHT22;65507;48.454;-2.058;2023-05-15T05:48:52;13.40;82.80
76613;DHT22;65507;48.454;-2.058;2023-05-15T05:51:17;13.30;82.80
76613;DHT22;65507;48.454;-2.058;2023-05-15T05:53:43;13.40;82.90
76613;DHT22;65507;48.454;-2.058;2023-05-15T05:56:09;13.40;82.80
76613;DHT22;65507;48.454;-2.058;2023-05-15T05:58:34;13.40;83.10
76613;DHT22;65507;48.454;-2.058;2023-05-15T06:01:00;13.40;82.70
76613;DHT22;65507;48.454;-2.058;2023-05-15T06:03:26;13.50;82.80
76613;DHT22;65507;48.454;-2.058;2023-05-15T06:05:51;13.50;82.70
76613;DHT22;65507;48.454;-2.058;2023-05-15T06:08:18;13.50;82.60
76613;DHT22;65507;48.454;-2.058;2023-05-15T06:10:44;13.60;82.70
76613;DHT22;65507;48.454;-2.058;2023-05-15T06:13:09;13.60;83.60
76613;DHT22;65507;48.454;-2.058;2023-05-15T06:15:36;13.50;82.80
76613;DHT22;65507;48.454;-2.058;2023-05-15T06:18:01;13.60;82.80
76613;DHT22;65507;48.454;-2.058;2023-05-15T06:20:27;13.60;82.80
76613;DHT22;65507;48.454;-2.058;2023-05-15T06:22:53;13.60;82.90
76613;DHT22;65507;48.454;-2.058;2023-05-15T06:25:18;13.60;83.00
76613;DHT22;65507;48.454;-2.058;2023-05-15T06:27:44;13.60;83.00
76613;DHT22;65507;48.454;-2.058;2023-05-15T06:30:10;13.60;83.30
76613;DHT22;65507;48.454;-2.058;2023-05-15T06:32:35;13.60;83.00
76613;DHT22;65507;48.454;-2.058;2023-05-15T06:35:01;13.60;83.30
76613;DHT22;65507;48.454;-2.058;2023-05-15T06:37:27;13.60;83.10
76613;DHT22;65507;48.454;-2.058;2023-05-15T06:39:53;13.60;83.20
76613;DHT22;65507;48.454;-2.058;2023-05-15T06:42:19;13.60;83.00
76613;DHT22;65507;48.454;-2.058;2023-05-15T06:44:44;13.70;83.00
76613;DHT22;65507;48.454;-2.058;2023-05-15T06:47:11;13.70;83.00
76613;DHT22;65507;48.454;-2.058;2023-05-15T06:49:37;13.70;83.00
76613;DHT22;65507;48.454;-2.058;2023-05-15T06:52:03;13.70;83.40
76613;DHT22;65507;48.454;-2.058;2023-05-15T06:54:28;13.70;83.90
76613;DHT22;65507;48.454;-2.058;2023-05-15T06:56:54;13.70;83.00
76613;DHT22;65507;48.454;-2.058;2023-05-15T06:59:19;13.70;83.00
76613;DHT22;65507;48.454;-2.058;2023-05-15T07:01:45;13.80;83.00
76613;DHT22;65507;48.454;-2.058;2023-05-15T07:04:10;13.80;82.90
76613;DHT22;65507;48.454;-2.058;2023-05-15T07:06:36;13.90;82.70
76613;DHT22;65507;48.454;-2.058;2023-05-15T07:09:02;14.00;82.60
76613;DHT22;65507;48.454;-2.058;2023-05-15T07:11:28;14.00;82.50
76613;DHT22;65507;48.454;-2.058;2023-05-15T07:13:54;14.10;82.40
76613;DHT22;65507;48.454;-2.058;2023-05-15T07:16:21;14.20;82.30
76613;DHT22;65507;48.454;-2.058;2023-05-15T07:18:48;14.20;82.30
76613;DHT22;65507;48.454;-2.058;2023-05-15T07:21:14;14.20;82.30
76613;DHT22;65507;48.454;-2.058;2023-05-15T07:23:39;14.20;82.30
76613;DHT22;65507;48.454;-2.058;2023-05-15T07:26:05;14.20;82.40
76613;DHT22;65507;48.454;-2.058;2023-05-15T07:28:31;14.20;82.70
76613;DHT22;65507;48.454;-2.058;2023-05-15T07:30:56;14.20;82.60
76613;DHT22;65507;48.454;-2.058;2023-05-15T07:33:22;14.20;82.60
76613;DHT22;65507;48.454;-2.058;2023-05-15T07:35:49;14.20;82.80
76613;DHT22;65507;48.454;-2.058;2023-05-15T07:38:15;14.20;82.70
76613;DHT22;65507;48.454;-2.058;2023-05-15T07:40:40;14.10;82.80
76613;DHT22;65507;48.454;-2.058;2023-05-15T07:43:06;14.10;82.90
76613;DHT22;65507;48.454;-2.058;2023-05-15T07:45:31;14.10;83.10
76613;DHT22;65507;48.454;-2.058;2023-05-15T07:47:57;14.10;83.00
76613;DHT22;65507;48.454;-2.058;2023-05-15T07:50:23;14.10;83.10
76613;DHT22;65507;48.454;-2.058;2023-05-15T07:52:48;14.10;83.00
76613;DHT22;65507;48.454;-2.058;2023-05-15T07:55:14;14.10;83.00
76613;DHT22;65507;48.454;-2.058;2023-05-15T07:57:39;14.10;82.90
76613;DHT22;65507;48.454;-2.058;2023-05-15T08:00:05;14.20;83.00
76613;DHT22;65507;48.454;-2.058;2023-05-15T08:02:35;14.10;82.90
76613;DHT22;65507;48.454;-2.058;2023-05-15T08:05:00;14.20;83.10
76613;DHT22;65507;48.454;-2.058;2023-05-15T08:07:26;14.10;83.20
76613;DHT22;65507;48.454;-2.058;2023-05-15T08:09:52;14.10;83.30
76613;DHT22;65507;48.454;-2.058;2023-05-15T08:12:18;14.00;83.40
76613;DHT22;65507;48.454;-2.058;2023-05-15T08:14:49;14.00;83.50
76613;DHT22;65507;48.454;-2.058;2023-05-15T08:17:14;14.10;83.50
76613;DHT22;65507;48.454;-2.058;2023-05-15T08:19:40;14.10;83.50
76613;DHT22;65507;48.454;-2.058;2023-05-15T08:22:07;14.10;83.40
76613;DHT22;65507;48.454;-2.058;2023-05-15T08:24:32;14.20;83.40
76613;DHT22;65507;48.454;-2.058;2023-05-15T08:26:58;14.30;83.20
76613;DHT22;65507;48.454;-2.058;2023-05-15T08:29:24;14.30;83.00
76613;DHT22;65507;48.454;-2.058;2023-05-15T08:31:50;14.40;82.90
76613;DHT22;65507;48.454;-2.058;2023-05-15T08:34:15;14.50;82.80
76613;DHT22;65507;48.454;-2.058;2023-05-15T08:36:41;14.50;82.90
76613;DHT22;65507;48.454;-2.058;2023-05-15T08:39:07;14.50;83.10
76613;DHT22;65507;48.454;-2.058;2023-05-15T08:41:41;14.40;83.20
76613;DHT22;65507;48.454;-2.058;2023-05-15T08:44:09;14.40;83.40
76613;DHT22;65507;48.454;-2.058;2023-05-15T08:46:35;14.20;83.50
76613;DHT22;65507;48.454;-2.058;2023-05-15T08:49:02;14.10;83.90
76613;DHT22;65507;48.454;-2.058;2023-05-15T08:51:30;14.00;84.10
76613;DHT22;65507;48.454;-2.058;2023-05-15T08:53:56;13.90;84.50
76613;DHT22;65507;48.454;-2.058;2023-05-15T08:56:21;13.80;84.70
76613;DHT22;65507;48.454;-2.058;2023-05-15T08:58:47;13.70;84.80
76613;DHT22;65507;48.454;-2.058;2023-05-15T09:01:13;13.60;85.00
76613;DHT22;65507;48.454;-2.058;2023-05-15T09:03:39;13.00;84.70
76613;DHT22;65507;48.454;-2.058;2023-05-15T09:06:05;13.60;85.00
76613;DHT22;65507;48.454;-2.058;2023-05-15T09:08:31;13.20;84.80
76613;DHT22;65507;48.454;-2.058;2023-05-15T09:10:57;13.50;84.80
76613;DHT22;65507;48.454;-2.058;2023-05-15T09:13:24;13.50;84.90
76613;DHT22;65507;48.454;-2.058;2023-05-15T09:15:50;13.50;84.80
76613;DHT22;65507;48.454;-2.058;2023-05-15T09:18:16;13.60;84.70
76613;DHT22;65507;48.454;-2.058;2023-05-15T09:20:45;13.60;84.70
76613;DHT22;65507;48.454;-2.058;2023-05-15T09:23:21;13.60;84.60
76613;DHT22;65507;48.454;-2.058;2023-05-15T09:25:46;13.70;84.50
76613;DHT22;65507;48.454;-2.058;2023-05-15T09:28:27;13.10;84.30
76613;DHT22;65507;48.454;-2.058;2023-05-15T09:31:00;13.60;84.70
76613;DHT22;65507;48.454;-2.058;2023-05-15T09:33:26;13.50;84.90
76613;DHT22;65507;48.454;-2.058;2023-05-15T09:35:52;13.40;85.10
76613;DHT22;65507;48.454;-2.058;2023-05-15T09:38:17;13.40;85.20
76613;DHT22;65507;48.454;-2.058;2023-05-15T09:40:43;13.40;85.30
76613;DHT22;65507;48.454;-2.058;2023-05-15T09:43:11;13.40;85.40
76613;DHT22;65507;48.454;-2.058;2023-05-15T09:45:37;13.40;85.30
76613;DHT22;65507;48.454;-2.058;2023-05-15T09:48:03;13.50;85.10
76613;DHT22;65507;48.454;-2.058;2023-05-15T09:50:33;13.40;85.20
76613;DHT22;65507;48.454;-2.058;2023-05-15T09:52:59;13.40;85.10
76613;DHT22;65507;48.454;-2.058;2023-05-15T09:55:25;13.40;85.10
76613;DHT22;65507;48.454;-2.058;2023-05-15T09:58:13;13.30;85.20
76613;DHT22;65507;48.454;-2.058;2023-05-15T10:00:38;13.30;85.30
76613;DHT22;65507;48.454;-2.058;2023-05-15T10:03:04;13.30;85.40
76613;DHT22;65507;48.454;-2.058;2023-05-15T10:05:30;13.20;85.50
76613;DHT22;65507;48.454;-2.058;2023-05-15T10:07:56;13.20;85.60
76613;DHT22;65507;48.454;-2.058;2023-05-15T10:10:23;13.10;85.50
76613;DHT22;65507;48.454;-2.058;2023-05-15T10:12:56;13.10;85.80
76613;DHT22;65507;48.454;-2.058;2023-05-15T10:15:24;13.10;85.70
76613;DHT22;65507;48.454;-2.058;2023-05-15T10:17:50;13.10;85.80
76613;DHT22;65507;48.454;-2.058;2023-05-15T10:20:21;13.00;85.80
76613;DHT22;65507;48.454;-2.058;2023-05-15T10:22:48;13.00;85.70
76613;DHT22;65507;48.454;-2.058;2023-05-15T10:27:50;13.00;85.80
76613;DHT22;65507;48.454;-2.058;2023-05-15T10:30:16;13.00;85.90
76613;DHT22;65507;48.454;-2.058;2023-05-15T10:32:43;12.90;85.90
76613;DHT22;65507;48.454;-2.058;2023-05-15T10:35:09;12.90;85.90
76613;DHT22;65507;48.454;-2.058;2023-05-15T10:37:38;12.90;85.90
76613;DHT22;65507;48.454;-2.058;2023-05-15T10:40:05;12.90;85.90
76613;DHT22;65507;48.454;-2.058;2023-05-15T10:42:31;12.90;85.90
76613;DHT22;65507;48.454;-2.058;2023-05-15T10:44:57;13.00;85.70
76613;DHT22;65507;48.454;-2.058;2023-05-15T10:47:25;13.00;85.60
76613;DHT22;65507;48.454;-2.058;2023-05-15T10:49:51;13.10;85.60
76613;DHT22;65507;48.454;-2.058;2023-05-15T10:52:17;13.00;85.50
76613;DHT22;65507;48.454;-2.058;2023-05-15T10:54:42;13.00;85.40
76613;DHT22;65507;48.454;-2.058;2023-05-15T10:57:08;13.00;86.50
76613;DHT22;65507;48.454;-2.058;2023-05-15T10:59:34;13.10;85.60
76613;DHT22;65507;48.454;-2.058;2023-05-15T11:04:45;13.20;85.10
76613;DHT22;65507;48.454;-2.058;2023-05-15T11:07:12;13.20;85.00
76613;DHT22;65507;48.454;-2.058;2023-05-15T11:09:38;13.20;85.00
76613;DHT22;65507;48.454;-2.058;2023-05-15T11:12:05;13.20;84.80
76613;DHT22;65507;48.454;-2.058;2023-05-15T11:14:32;13.20;84.90
76613;DHT22;65507;48.454;-2.058;2023-05-15T11:16:58;13.10;85.10
76613;DHT22;65507;48.454;-2.058;2023-05-15T11:21:56;13.00;85.10
76613;DHT22;65507;48.454;-2.058;2023-05-15T11:24:25;13.00;85.10
76613;DHT22;65507;48.454;-2.058;2023-05-15T11:26:56;13.00;85.10
76613;DHT22;65507;48.454;-2.058;2023-05-15T11:29:22;13.10;84.90
76613;DHT22;65507;48.454;-2.058;2023-05-15T11:31:48;13.10;84.70
76613;DHT22;65507;48.454;-2.058;2023-05-15T11:34:13;13.10;84.70
76613;DHT22;65507;48.454;-2.058;2023-05-15T11:36:40;13.10;84.70
76613;DHT22;65507;48.454;-2.058;2023-05-15T11:39:10;13.10;84.60
76613;DHT22;65507;48.454;-2.058;2023-05-15T11:41:36;13.20;84.60
76613;DHT22;65507;48.454;-2.058;2023-05-15T11:44:02;13.10;84.30
76613;DHT22;65507;48.454;-2.058;2023-05-15T11:46:27;13.10;84.40
76613;DHT22;65507;48.454;-2.058;2023-05-15T11:48:53;13.20;84.40
76613;DHT22;65507;48.454;-2.058;2023-05-15T11:51:22;13.20;84.20
76613;DHT22;65507;48.454;-2.058;2023-05-15T11:53:49;13.10;84.20
76613;DHT22;65507;48.454;-2.058;2023-05-15T11:56:19;13.20;84.10
76613;DHT22;65507;48.454;-2.058;2023-05-15T11:58:48;13.10;84.00
76613;DHT22;65507;48.454;-2.058;2023-05-15T12:01:14;13.10;84.00
76613;DHT22;65507;48.454;-2.058;2023-05-15T12:03:40;13.10;84.00
76613;DHT22;65507;48.454;-2.058;2023-05-15T12:06:06;13.20;83.90
76613;DHT22;65507;48.454;-2.058;2023-05-15T12:08:32;13.30;83.50
76613;DHT22;65507;48.454;-2.058;2023-05-15T12:10:58;13.40;83.20
76613;DHT22;65507;48.454;-2.058;2023-05-15T12:13:24;13.50;83.00
76613;DHT22;65507;48.454;-2.058;2023-05-15T12:15:49;13.60;82.80
76613;DHT22;65507;48.454;-2.058;2023-05-15T12:18:15;13.70;82.70
76613;DHT22;65507;48.454;-2.058;2023-05-15T12:20:41;13.80;82.50
76613;DHT22;65507;48.454;-2.058;2023-05-15T12:23:13;14.00;82.20
76613;DHT22;65507;48.454;-2.058;2023-05-15T12:25:39;14.20;81.70
76613;DHT22;65507;48.454;-2.058;2023-05-15T12:28:05;14.40;81.40
76613;DHT22;65507;48.454;-2.058;2023-05-15T12:30:31;14.60;81.10
76613;DHT22;65507;48.454;-2.058;2023-05-15T12:32:58;14.80;80.90
76613;DHT22;65507;48.454;-2.058;2023-05-15T12:35:25;15.00;80.30
76613;DHT22;65507;48.454;-2.058;2023-05-15T12:37:50;15.00;80.30
76613;DHT22;65507;48.454;-2.058;2023-05-15T12:40:17;15.10;80.20
76613;DHT22;65507;48.454;-2.058;2023-05-15T12:42:44;15.10;80.20
76613;DHT22;65507;48.454;-2.058;2023-05-15T12:45:13;15.10;80.40
76613;DHT22;65507;48.454;-2.058;2023-05-15T12:47:39;15.00;80.30
76613;DHT22;65507;48.454;-2.058;2023-05-15T12:50:14;14.90;80.60
76613;DHT22;65507;48.454;-2.058;2023-05-15T12:52:49;14.80;80.90
76613;DHT22;65507;48.454;-2.058;2023-05-15T12:55:22;14.80;81.00
76613;DHT22;65507;48.454;-2.058;2023-05-15T12:57:47;14.70;80.90
76613;DHT22;65507;48.454;-2.058;2023-05-15T13:00:13;14.70;80.70
76613;DHT22;65507;48.454;-2.058;2023-05-15T13:02:43;14.60;80.90
76613;DHT22;65507;48.454;-2.058;2023-05-15T13:05:09;14.50;80.70
76613;DHT22;65507;48.454;-2.058;2023-05-15T13:07:35;14.40;81.70
76613;DHT22;65507;48.454;-2.058;2023-05-15T13:10:03;14.30;80.70
76613;DHT22;65507;48.454;-2.058;2023-05-15T13:12:33;14.20;80.70
76613;DHT22;65507;48.454;-2.058;2023-05-15T13:14:59;14.30;80.70
76613;DHT22;65507;48.454;-2.058;2023-05-15T13:17:25;14.40;80.50
76613;DHT22;65507;48.454;-2.058;2023-05-15T13:19:53;15.60;80.90
76613;DHT22;65507;48.454;-2.058;2023-05-15T13:22:19;14.50;80.40
76613;DHT22;65507;48.454;-2.058;2023-05-15T13:24:45;14.60;79.80
76613;DHT22;65507;48.454;-2.058;2023-05-15T13:27:10;14.50;79.60
76613;DHT22;65507;48.454;-2.058;2023-05-15T13:29:36;14.60;79.30
76613;DHT22;65507;48.454;-2.058;2023-05-15T13:32:01;14.60;79.10
76613;DHT22;65507;48.454;-2.058;2023-05-15T13:34:27;14.70;79.00
76613;DHT22;65507;48.454;-2.058;2023-05-15T13:36:52;14.70;78.70
76613;DHT22;65507;48.454;-2.058;2023-05-15T13:39:18;14.70;78.80
76613;DHT22;65507;48.454;-2.058;2023-05-15T13:41:43;14.70;78.70
76613;DHT22;65507;48.454;-2.058;2023-05-15T13:44:09;14.70;78.30
76613;DHT22;65507;48.454;-2.058;2023-05-15T13:46:35;14.80;78.30
76613;DHT22;65507;48.454;-2.058;2023-05-15T13:49:00;14.70;78.10
76613;DHT22;65507;48.454;-2.058;2023-05-15T13:51:26;14.70;77.90
76613;DHT22;65507;48.454;-2.058;2023-05-15T13:53:51;14.60;78.10
76613;DHT22;65507;48.454;-2.058;2023-05-15T13:56:17;14.60;78.10
76613;DHT22;65507;48.454;-2.058;2023-05-15T13:58:42;14.70;77.80
76613;DHT22;65507;48.454;-2.058;2023-05-15T14:01:08;14.60;77.70
76613;DHT22;65507;48.454;-2.058;2023-05-15T14:03:33;14.70;77.60
76613;DHT22;65507;48.454;-2.058;2023-05-15T14:05:59;14.80;77.20
76613;DHT22;65507;48.454;-2.058;2023-05-15T14:08:25;14.90;77.10
76613;DHT22;65507;48.454;-2.058;2023-05-15T14:10:51;14.90;76.60
76613;DHT22;65507;48.454;-2.058;2023-05-15T14:13:17;14.90;76.50
76613;DHT22;65507;48.454;-2.058;2023-05-15T14:15:42;14.90;76.40
76613;DHT22;65507;48.454;-2.058;2023-05-15T14:18:08;14.90;76.20
76613;DHT22;65507;48.454;-2.058;2023-05-15T14:20:33;15.00;76.20
76613;DHT22;65507;48.454;-2.058;2023-05-15T14:22:59;15.10;76.10
76613;DHT22;65507;48.454;-2.058;2023-05-15T14:25:24;15.10;75.40
76613;DHT22;65507;48.454;-2.058;2023-05-15T14:27:50;15.20;75.60
76613;DHT22;65507;48.454;-2.058;2023-05-15T14:30:15;15.20;74.30
76613;DHT22;65507;48.454;-2.058;2023-05-15T14:32:41;15.10;74.80
76613;DHT22;65507;48.454;-2.058;2023-05-15T14:35:06;15.10;74.80
76613;DHT22;65507;48.454;-2.058;2023-05-15T14:37:32;15.10;74.90
76613;DHT22;65507;48.454;-2.058;2023-05-15T14:39:57;15.10;74.80
76613;DHT22;65507;48.454;-2.058;2023-05-15T14:42:24;15.10;74.60
76613;DHT22;65507;48.454;-2.058;2023-05-15T14:44:49;15.20;74.40
76613;DHT22;65507;48.454;-2.058;2023-05-15T14:47:15;15.20;74.20
76613;DHT22;65507;48.454;-2.058;2023-05-15T14:49:41;15.20;74.20
76613;DHT22;65507;48.454;-2.058;2023-05-15T14:52:07;15.30;73.80
76613;DHT22;65507;48.454;-2.058;2023-05-15T14:54:33;15.40;73.40
76613;DHT22;65507;48.454;-2.058;2023-05-15T14:57:00;15.40;73.40
76613;DHT22;65507;48.454;-2.058;2023-05-15T14:59:28;15.40;73.30
76613;DHT22;65507;48.454;-2.058;2023-05-15T15:01:54;15.40;72.50
76613;DHT22;65507;48.454;-2.058;2023-05-15T15:04:19;15.30;72.30
76613;DHT22;65507;48.454;-2.058;2023-05-15T15:06:48;15.30;72.60
76613;DHT22;65507;48.454;-2.058;2023-05-15T15:09:13;15.30;72.60
76613;DHT22;65507;48.454;-2.058;2023-05-15T15:11:39;15.30;72.80
76613;DHT22;65507;48.454;-2.058;2023-05-15T15:14:04;15.20;72.60
76613;DHT22;65507;48.454;-2.058;2023-05-15T15:16:30;15.20;72.60
76613;DHT22;65507;48.454;-2.058;2023-05-15T15:18:55;15.20;72.70
76613;DHT22;65507;48.454;-2.058;2023-05-15T15:21:21;15.30;72.50
76613;DHT22;65507;48.454;-2.058;2023-05-15T15:23:46;15.30;72.40